sensor_id;sensor_type;location;lat;lon;timestamp;temperature;humidity
6724;DHT22;3399;52.530;13.304;2023-05-20T00:00:57;13.00;99.90
6724;DHT22;3399;52.530;13.304;2023-05-20T00:03:22;13.10;99.90
6724;DHT22;3399;52.530;13.304;2023-05-20T00:05:48;13.20;99.90
6724;DHT22;3399;52.530;13.304;2023-05-20T00:08:13;13.10;99.90
6724;DHT22;3399;52.530;13.304;2023-05-20T00:10:39;12.90;99.90
6724;DHT22;3399;52.530;13.304;2023-05-20T00:13:06;13.00;99.90
6724;DHT22;3399;52.530;13.304;2023-05-20T00:15:32;12.90;99.90
6724;DHT22;3399;52.530;13.304;2023-05-20T00:17:59;12.90;99.90
6724;DHT22;3399;52.530;13.304;2023-05-20T00:20:25;13.00;99.90
6724;DHT22;3399;52.530;13.304;2023-05-20T00:22:50;12.90;99.90
6724;DHT22;3399;52.530;13.304;2023-05-20T00:25:16;12.90;99.90
6724;DHT22;3399;52.530;13.304;2023-05-20T00:27:41;12.90;99.90
6724;DHT22;3399;52.530;13.304;2023-05-20T00:30:07;12.90;99.90
6724;DHT22;3399;52.530;13.304;2023-05-20T00:32:33;12.80;99.90
6724;DHT22;3399;52.530;13.304;2023-05-20T00:35:00;12.90;99.90
6724;DHT22;3399;52.530;13.304;2023-05-20T00:37:26;12.90;99.90
6724;DHT22;3399;52.530;13.304;2023-05-20T00:39:52;12.90;99.90
6724;DHT22;3399;52.530;13.304;2023-05-20T00:42:22;12.80;99.90
6724;DHT22;3399;52.530;13.304;2023-05-20T00:44:47;12.80;99.90
6724;DHT22;3399;52.530;13.304;2023-05-20T00:47:26;12.60;99.90
6724;DHT22;3399;52.530;13.304;2023-05-20T00:49:53;12.60;99.90
6724;DHT22;3399;52.530;13.304;2023-05-20T00:52:18;12.60;99.90
6724;DHT22;3399;52.530;13.304;2023-05-20T00:54:45;12.60;99.90
6724;DHT22;3399;52.530;13.304;2023-05-20T00:57:11;12.40;99.90
6724;DHT22;3399;52.530;13.304;2023-05-20T00:59:37;12.40;99.90
6724;DHT22;3399;52.530;13.304;2023-05-20T01:02:03;12.40;99.90
6724;DHT22;3399;52.530;13.304;2023-05-20T01:04:29;12.50;99.90
6724;DHT22;3399;52.530;13.304;2023-05-20T01:06:55;12.50;99.90
6724;DHT22;3399;52.530;13.304;2023-05-20T01:09:22;12.50;99.90
6724;DHT22;3399;52.530;13.304;2023-05-20T01:11:53;12.50;99.90
6724;DHT22;3399;52.530;13.304;2023-05-20T01:14:22;12.50;99.90
6724;DHT22;3399;52.530;13.304;2023-05-20T01:16:49;12.60;99.90
6724;DHT22;3399;52.530;13.304;2023-05-20T01:19:32;12.50;99.90
6724;DHT22;3399;52.530;13.304;2023-05-20T01:22:01;12.30;99.90
6724;DHT22;3399;52.530;13.304;2023-05-20T01:24:27;12.30;99.90
6724;DHT22;3399;52.530;13.304;2023-05-20T01:26:52;12.30;99.90
6724;DHT22;3399;52.530;13.304;2023-05-20T01:29:18;12.30;99.90
6724;DHT22;3399;52.530;13.304;2023-05-20T01:31:45;12.30;99.90
6724;DHT22;3399;52.530;13.304;2023-05-20T01:34:12;12.30;99.90
6724;DHT22;3399;52.530;13.304;2023-05-20T01:36:38;12.20;99.90
6724;DHT22;3399;52.530;13.304;2023-05-20T01:39:05;12.10;99.90
6724;DHT22;3399;52.530;13.304;2023-05-20T01:41:32;12.10;99.90
6724;DHT22;3399;52.530;13.304;2023-05-20T01:44:00;12.10;99.90
6724;DHT22;3399;52.530;13.304;2023-05-20T01:46:26;12.00;99.90
6724;DHT22;3399;52.530;13.304;2023-05-20T01:48:51;12.00;99.90
6724;DHT22;3399;52.530;13.304;2023-05-20T01:51:17;11.90;99.90
6724;DHT22;3399;52.530;13.304;2023-05-20T01:53:43;11.70;99.90
6724;DHT22;3399;52.530;13.304;2023-05-20T01:56:08;11.70;99.90
6724;DHT22;3399;52.530;13.304;2023-05-20T01:58:33;11.90;99.90
6724;DHT22;3399;52.530;13.304;2023-05-20T02:00:59;11.80;99.90
6724;DHT22;3399;52.530;13.304;2023-05-20T02:03:25;11.70;99.90
6724;DHT22;3399;52.530;13.304;2023-05-20T02:05:50;11.70;99.90
6724;DHT22;3399;52.530;13.304;2023-05-20T02:08:16;11.60;99.90
6724;DHT22;3399;52.530;13.304;2023-05-20T02:10:41;11.70;99.90
6724;DHT22;3399;52.530;13.304;2023-05-20T02:13:08;11.70;99.90
6724;DHT22;3399;52.530;13.304;2023-05-20T02:15:33;11.60;99.90
6724;DHT22;3399;52.530;13.304;2023-05-20T02:17:59;11.60;99.90
6724;DHT22;3399;52.530;13.304;2023-05-20T02:20:24;11.50;99.90
6724;DHT22;3399;52.530;13.304;2023-05-20T02:22:50;11.40;99.90
6724;DHT22;3399;52.530;13.304;2023-05-20T02:25:15;11.30;99.90
6724;DHT22;3399;52.530;13.304;2023-05-20T02:27:41;11.30;99.90
6724;DHT22;3399;52.530;13.304;2023-05-20T02:30:07;11.40;99.90
6724;DHT22;3399;52.530;13.304;2023-05-20T02:32:33;11.40;99.90
6724;DHT22;3399;52.530;13.304;2023-05-20T02:34:59;11.30;99.90
6724;DHT22;3399;52.530;13.304;2023-05-20T02:37:24;11.20;99.90
6724;DHT22;3399;52.530;13.304;2023-05-20T02:39:50;11.20;99.90
6724;DHT22;3399;52.530;13.304;2023-05-20T02:42:15;11.10;99.90
6724;DHT22;3399;52.530;13.304;2023-05-20T02:44:41;11.30;99.90
6724;DHT22;3399;52.530;13.304;2023-05-20T02:47:06;11.50;99.90
6724;DHT22;3399;52.530;13.304;2023-05-20T02:49:32;11.40;99.90
6724;DHT22;3399;52.530;13.304;2023-05-20T02:51:57;11.40;99.90
6724;DHT22;3399;52.530;13.304;2023-05-20T02:54:23;11.30;99.90
6724;DHT22;3399;52.530;13.304;2023-05-20T02:56:48;11.30;99.90
6724;DHT22;3399;52.530;13.304;2023-05-20T02:59:14;11.30;99.90
6724;DHT22;3399;52.530;13.304;2023-05-20T03:01:39;11.10;99.90
6724;DHT22;3399;52.530;13.304;2023-05-20T03:04:05;11.00;99.90
6724;DHT22;3399;52.530;13.304;2023-05-20T03:06:30;11.00;99.90
6724;DHT22;3399;52.530;13.304;2023-05-20T03:08:56;11.10;99.90
6724;DHT22;3399;52.530;13.304;2023-05-20T03:11:22;11.10;99.90
6724;DHT22;3399;52.530;13.304;2023-05-20T03:13:48;11.10;99.90
6724;DHT22;3399;52.530;13.304;2023-05-20T03:16:13;11.20;99.90
6724;DHT22;3399;52.530;13.304;2023-05-20T03:18:40;11.30;99.90
6724;DHT22;3399;52.530;13.304;2023-05-20T03:21:07;11.20;99.90
6724;DHT22;3399;52.530;13.304;2023-05-20T03:23:33;11.30;99.90
6724;DHT22;3399;52.530;13.304;2023-05-20T03:25:58;11.20;99.90
6724;DHT22;3399;52.530;13.304;2023-05-20T03:28:24;11.10;99.90
6724;DHT22;3399;52.530;13.304;2023-05-20T03:30:50;11.20;99.90
6724;DHT22;3399;52.530;13.304;2023-05-20T03:33:15;11.40;99.90
6724;DHT22;3399;52.530;13.304;2023-05-20T03:35:41;11.40;99.90
6724;DHT22;3399;52.530;13.304;2023-05-20T03:38:06;11.50;99.90
6724;DHT22;3399;52.530;13.304;2023-05-20T03:40:32;11.30;99.90
6724;DHT22;3399;52.530;13.304;2023-05-20T03:42:57;11.30;99.90
6724;DHT22;3399;52.530;13.304;2023-05-20T03:45:23;11.30;99.90
6724;DHT22;3399;52.530;13.304;2023-05-20T03:47:48;11.40;99.90
6724;DHT22;3399;52.530;13.304;2023-05-20T03:50:14;11.10;99.90
6724;DHT22;3399;52.530;13.304;2023-05-20T03:52:40;11.10;99.90
6724;DHT22;3399;52.530;13.304;2023-05-20T03:55:05;11.30;99.90
6724;DHT22;3399;52.530;13.304;2023-05-20T03:57:31;11.30;99.90
6724;DHT22;3399;52.530;13.304;2023-05-20T03:59:57;11.40;99.90
6724;DHT22;3399;52.530;13.304;2023-05-20T04:02:22;11.30;99.90
6724;DHT22;3399;52.530;13.304;2023-05-20T04:04:48;11.20;99.90
6724;DHT22;3399;52.530;13.304;2023-05-20T04:07:17;11.10;99.90
6724;DHT22;3399;52.530;13.304;2023-05-20T04:09:42;11.40;99.90
6724;DHT22;3399;52.530;13.304;2023-05-20T04:12:08;11.50;99.90
6724;DHT22;3399;52.530;13.304;2023-05-20T04:14:34;11.40;99.90
6724;DHT22;3399;52.530;13.304;2023-05-20T04:17:02;11.30;99.90
6724;DHT22;3399;52.530;13.304;2023-05-20T04:19:27;11.30;99.90
6724;DHT22;3399;52.530;13.304;2023-05-20T04:21:55;11.20;99.90
6724;DHT22;3399;52.530;13.304;2023-05-20T04:24:20;11.30;99.90
6724;DHT22;3399;52.530;13.304;2023-05-20T04:26:50;11.30;99.90
6724;DHT22;3399;52.530;13.304;2023-05-20T04:29:16;11.40;99.90
6724;DHT22;3399;52.530;13.304;2023-05-20T04:31:44;11.40;99.90
6724;DHT22;3399;52.530;13.304;2023-05-20T04:34:09;11.30;99.90
6724;DHT22;3399;52.530;13.304;2023-05-20T04:36:35;11.40;99.90
6724;DHT22;3399;52.530;13.304;2023-05-20T04:39:02;11.50;99.90
6724;DHT22;3399;52.530;13.304;2023-05-20T04:41:29;11.50;99.90
6724;DHT22;3399;52.530;13.304;2023-05-20T04:43:55;11.40;99.90
6724;DHT22;3399;52.530;13.304;2023-05-20T04:46:25;11.40;99.90
6724;DHT22;3399;52.530;13.304;2023-05-20T04:48:51;11.40;99.90
6724;DHT22;3399;52.530;13.304;2023-05-20T04:51:17;11.50;99.90
6724;DHT22;3399;52.530;13.304;2023-05-20T04:53:42;11.40;99.90
6724;DHT22;3399;52.530;13.304;2023-05-20T04:56:09;11.30;99.90
6724;DHT22;3399;52.530;13.304;2023-05-20T04:58:35;11.40;99.90
6724;DHT22;3399;52.530;13.304;2023-05-20T05:01:00;11.60;99.90
6724;DHT22;3399;52.530;13.304;2023-05-20T05:03:26;11.60;99.90
6724;DHT22;3399;52.530;13.304;2023-05-20T05:05:55;11.50;99.90
6724;DHT22;3399;52.530;13.304;2023-05-20T05:08:21;11.50;99.90
6724;DHT22;3399;52.530;13.304;2023-05-20T05:10:46;11.30;99.90
6724;DHT22;3399;52.530;13.304;2023-05-20T05:13:12;11.50;99.90
6724;DHT22;3399;52.530;13.304;2023-05-20T05:15:37;11.50;99.90
6724;DHT22;3399;52.530;13.304;2023-05-20T05:18:03;11.40;99.90
6724;DHT22;3399;52.530;13.304;2023-05-20T05:20:28;11.50;99.90
6724;DHT22;3399;52.530;13.304;2023-05-20T05:22:54;11.60;99.90
6724;DHT22;3399;52.530;13.304;2023-05-20T05:25:19;11.70;99.90
6724;DHT22;3399;52.530;13.304;2023-05-20T05:27:45;11.80;99.90
6724;DHT22;3399;52.530;13.304;2023-05-20T05:30:13;11.90;99.90
6724;DHT22;3399;52.530;13.304;2023-05-20T05:32:38;12.00;99.90
6724;DHT22;3399;52.530;13.304;2023-05-20T05:35:04;12.00;99.90
6724;DHT22;3399;52.530;13.304;2023-05-20T05:37:30;12.00;99.90
6724;DHT22;3399;52.530;13.304;2023-05-20T05:39:55;12.00;99.90
6724;DHT22;3399;52.530;13.304;2023-05-20T05:42:21;12.00;99.90
6724;DHT22;3399;52.530;13.304;2023-05-20T05:44:47;12.10;99.90
6724;DHT22;3399;52.530;13.304;2023-05-20T05:47:12;12.10;99.90
6724;DHT22;3399;52.530;13.304;2023-05-20T05:49:38;12.00;99.90
6724;DHT22;3399;52.530;13.304;2023-05-20T05:52:04;11.90;99.90
6724;DHT22;3399;52.530;13.304;2023-05-20T05:54:29;12.10;99.90
6724;DHT22;3399;52.530;13.304;2023-05-20T05:56:55;12.10;99.90
6724;DHT22;3399;52.530;13.304;2023-05-20T05:59:23;12.10;99.90
6724;DHT22;3399;52.530;13.304;2023-05-20T06:01:48;12.20;99.90
6724;DHT22;3399;52.530;13.304;2023-05-20T06:04:14;12.40;99.90
6724;DHT22;3399;52.530;13.304;2023-05-20T06:06:40;12.40;99.90
6724;DHT22;3399;52.530;13.304;2023-05-20T06:09:05;12.20;99.90
6724;DHT22;3399;52.530;13.304;2023-05-20T06:11:31;12.20;99.90
6724;DHT22;3399;52.530;13.304;2023-05-20T06:13:57;12.20;99.90
6724;DHT22;3399;52.530;13.304;2023-05-20T06:16:23;12.20;99.90
6724;DHT22;3399;52.530;13.304;2023-05-20T06:18:49;12.30;99.90
6724;DHT22;3399;52.530;13.304;2023-05-20T06:21:15;12.20;99.90
6724;DHT22;3399;52.530;13.304;2023-05-20T06:23:41;12.40;99.90
6724;DHT22;3399;52.530;13.304;2023-05-20T06:26:06;12.50;99.90
6724;DHT22;3399;52.530;13.304;2023-05-20T06:28:32;12.70;99.90
6724;DHT22;3399;52.530;13.304;2023-05-20T06:30:57;12.60;99.90
6724;DHT22;3399;52.530;13.304;2023-05-20T06:33:23;12.50;99.90
6724;DHT22;3399;52.530;13.304;2023-05-20T06:35:56;12.50;99.90
6724;DHT22;3399;52.530;13.304;2023-05-20T06:38:22;12.50;99.90
6724;DHT22;3399;52.530;13.304;2023-05-20T06:40:48;12.50;99.90
6724;DHT22;3399;52.530;13.304;2023-05-20T06:43:14;12.60;99.90
6724;DHT22;3399;52.530;13.304;2023-05-20T06:45:40;12.50;99.90
6724;DHT22;3399;52.530;13.304;2023-05-20T06:48:06;12.40;99.90
6724;DHT22;3399;52.530;13.304;2023-05-20T06:50:32;12.50;99.90
6724;DHT22;3399;52.530;13.304;2023-05-20T06:52:57;12.70;99.90
6724;DHT22;3399;52.530;13.304;2023-05-20T06:55:23;12.60;99.90
6724;DHT22;3399;52.530;13.304;2023-05-20T06:57:48;12.60;99.90
6724;DHT22;3399;52.530;13.304;2023-05-20T07:00:14;12.80;99.90
6724;DHT22;3399;52.530;13.304;2023-05-20T07:02:41;12.80;99.90
6724;DHT22;3399;52.530;13.304;2023-05-20T07:05:07;13.00;99.90
6724;DHT22;3399;52.530;13.304;2023-05-20T07:07:32;13.00;99.90
6724;DHT22;3399;52.530;13.304;2023-05-20T07:09:58;13.00;99.90
6724;DHT22;3399;52.530;13.304;2023-05-20T07:12:24;12.90;99.90
6724;DHT22;3399;52.530;13.304;2023-05-20T07:14:49;13.00;99.90
6724;DHT22;3399;52.530;13.304;2023-05-20T07:17:15;13.00;99.90
6724;DHT22;3399;52.530;13.304;2023-05-20T07:19:41;13.00;99.90
6724;DHT22;3399;52.530;13.304;2023-05-20T07:22:06;12.90;99.90
6724;DHT22;3399;52.530;13.304;2023-05-20T07:24:32;13.00;99.90
6724;DHT22;3399;52.530;13.304;2023-05-20T07:26:57;13.10;99.90
6724;DHT22;3399;52.530;13.304;2023-05-20T07:29:23;13.40;99.90
6724;DHT22;3399;52.530;13.304;2023-05-20T07:31:49;13.50;99.90
6724;DHT22;3399;52.530;13.304;2023-05-20T07:34:15;13.40;99.90
6724;DHT22;3399;52.530;13.304;2023-05-20T07:36:40;13.50;99.90
6724;DHT22;3399;52.530;13.304;2023-05-20T07:39:06;13.40;99.90
6724;DHT22;3399;52.530;13.304;2023-05-20T07:41:33;13.50;99.90
6724;DHT22;3399;52.530;13.304;2023-05-20T07:44:01;13.40;99.90
6724;DHT22;3399;52.530;13.304;2023-05-20T07:46:26;13.50;99.90
6724;DHT22;3399;52.530;13.304;2023-05-20T07:48:52;13.60;99.90
6724;DHT22;3399;52.530;13.304;2023-05-20T07:51:17;13.60;99.90
6724;DHT22;3399;52.530;13.304;2023-05-20T07:53:43;13.80;99.90
6724;DHT22;3399;52.530;13.304;2023-05-20T07:56:09;14.00;99.90
6724;DHT22;3399;52.530;13.304;2023-05-20T07:58:34;14.20;99.90
6724;DHT22;3399;52.530;13.304;2023-05-20T08:01:00;14.30;99.90
6724;DHT22;3399;52.530;13.304;2023-05-20T08:03:26;14.40;99.90
6724;DHT22;3399;52.530;13.304;2023-05-20T08:05:52;14.40;99.90
6724;DHT22;3399;52.530;13.304;2023-05-20T08:08:17;14.30;99.90
6724;DHT22;3399;52.530;13.304;2023-05-20T08:10:43;14.40;99.90
6724;DHT22;3399;52.530;13.304;2023-05-20T08:13:08;14.50;99.90
6724;DHT22;3399;52.530;13.304;2023-05-20T08:15:35;14.60;99.90
6724;DHT22;3399;52.530;13.304;2023-05-20T08:18:00;14.40;99.90
6724;DHT22;3399;52.530;13.304;2023-05-20T08:20:26;14.30;99.90
6724;DHT22;3399;52.530;13.304;2023-05-20T08:22:51;14.50;99.90
6724;DHT22;3399;52.530;13.304;2023-05-20T08:25:17;14.50;99.90
6724;DHT22;3399;52.530;13.304;2023-05-20T08:27:43;14.50;99.90
6724;DHT22;3399;52.530;13.304;2023-05-20T08:30:09;14.40;99.90
6724;DHT22;3399;52.530;13.304;2023-05-20T08:32:35;14.70;99.90
6724;DHT22;3399;52.530;13.304;2023-05-20T08:35:01;14.80;99.90
6724;DHT22;3399;52.530;13.304;2023-05-20T08:37:28;14.80;99.90
6724;DHT22;3399;52.530;13.304;2023-05-20T08:39:54;14.90;99.90
6724;DHT22;3399;52.530;13.304;2023-05-20T08:42:23;15.00;99.90
6724;DHT22;3399;52.530;13.304;2023-05-20T08:44:50;14.90;99.90
6724;DHT22;3399;52.530;13.304;2023-05-20T08:47:18;15.20;99.90
6724;DHT22;3399;52.530;13.304;2023-05-20T08:49:44;15.20;99.90
6724;DHT22;3399;52.530;13.304;2023-05-20T08:52:10;15.10;99.90
6724;DHT22;3399;52.530;13.304;2023-05-20T08:54:45;15.40;99.90
6724;DHT22;3399;52.530;13.304;2023-05-20T08:57:12;15.50;99.90
6724;DHT22;3399;52.530;13.304;2023-05-20T08:59:41;15.50;99.90
6724;DHT22;3399;52.530;13.304;2023-05-20T09:02:08;15.60;99.90
6724;DHT22;3399;52.530;13.304;2023-05-20T09:04:34;15.40;99.90
6724;DHT22;3399;52.530;13.304;2023-05-20T09:07:00;15.30;99.90
6724;DHT22;3399;52.530;13.304;2023-05-20T09:09:25;15.40;99.90
6724;DHT22;3399;52.530;13.304;2023-05-20T09:11:51;15.60;99.90
6724;DHT22;3399;52.530;13.304;2023-05-20T09:14:23;15.60;99.90
6724;DHT22;3399;52.530;13.304;2023-05-20T09:16:51;15.40;99.90
6724;DHT22;3399;52.530;13.304;2023-05-20T09:19:19;15.10;99.90
6724;DHT22;3399;52.530;13.304;2023-05-20T09:21:46;15.20;99.90
6724;DHT22;3399;52.530;13.304;2023-05-20T09:24:12;15.30;99.90
6724;DHT22;3399;52.530;13.304;2023-05-20T09:26:37;15.30;99.90
6724;DHT22;3399;52.530;13.304;2023-05-20T09:29:03;15.30;99.90
6724;DHT22;3399;52.530;13.304;2023-05-20T09:31:32;15.40;99.90
6724;DHT22;3399;52.530;13.304;2023-05-20T09:34:02;15.40;99.90
6724;DHT22;3399;52.530;13.304;2023-05-20T09:36:28;15.40;99.90
6724;DHT22;3399;52.530;13.304;2023-05-20T09:38:59;15.60;99.90
6724;DHT22;3399;52.530;13.304;2023-05-20T09:41:32;15.80;99.90
6724;DHT22;3399;52.530;13.304;2023-05-20T09:43:59;15.80;99.90
6724;DHT22;3399;52.530;13.304;2023-05-20T09:46:26;15.70;99.90
6724;DHT22;3399;52.530;13.304;2023-05-20T09:48:54;15.70;99.90
6724;DHT22;3399;52.530;13.304;2023-05-20T09:51:21;15.70;99.90
6724;DHT22;3399;52.530;13.304;2023-05-20T09:53:47;15.70;99.90
6724;DHT22;3399;52.530;13.304;2023-05-20T09:56:13;15.80;99.90
6724;DHT22;3399;52.530;13.304;2023-05-20T09:58:39;15.80;99.90
6724;DHT22;3399;52.530;13.304;2023-05-20T10:01:06;16.10;99.90
6724;DHT22;3399;52.530;13.304;2023-05-20T10:03:32;16.00;99.90
6724;DHT22;3399;52.530;13.304;2023-05-20T10:09:13;16.10;99.90
6724;DHT22;3399;52.530;13.304;2023-05-20T10:14:39;15.80;99.90
6724;DHT22;3399;52.530;13.304;2023-05-20T10:17:16;15.90;99.90
6724;DHT22;3399;52.530;13.304;2023-05-20T10:19:44;15.90;99.90
6724;DHT22;3399;52.530;13.304;2023-05-20T10:22:10;16.00;99.90
6724;DHT22;3399;52.530;13.304;2023-05-20T10:27:04;16.20;99.90
6724;DHT22;3399;52.530;13.304;2023-05-20T10:32:07;15.90;99.90
6724;DHT22;3399;52.530;13.304;2023-05-20T10:34:44;16.00;99.90
6724;DHT22;3399;52.530;13.304;2023-05-20T10:37:22;16.10;99.90
6724;DHT22;3399;52.530;13.304;2023-05-20T10:39:47;16.10;99.90
6724;DHT22;3399;52.530;13.304;2023-05-20T10:42:13;15.90;99.90
6724;DHT22;3399;52.530;13.304;2023-05-20T10:44:45;16.00;99.90
6724;DHT22;3399;52.530;13.304;2023-05-20T10:47:12;16.20;99.90
6724;DHT22;3399;52.530;13.304;2023-05-20T10:49:44;16.30;99.90
6724;DHT22;3399;52.530;13.304;2023-05-20T10:52:11;16.60;99.90
6724;DHT22;3399;52.530;13.304;2023-05-20T10:54:57;16.90;99.90
6724;DHT22;3399;52.530;13.304;2023-05-20T10:57:25;16.80;99.90
6724;DHT22;3399;52.530;13.304;2023-05-20T10:59:51;17.00;99.90
6724;DHT22;3399;52.530;13.304;2023-05-20T11:02:18;17.20;99.90
6724;DHT22;3399;52.530;13.304;2023-05-20T11:04:45;17.40;99.90
6724;DHT22;3399;52.530;13.304;2023-05-20T11:07:11;17.50;99.90
6724;DHT22;3399;52.530;13.304;2023-05-20T11:09:37;17.30;99.90
6724;DHT22;3399;52.530;13.304;2023-05-20T11:12:02;17.50;99.90
6724;DHT22;3399;52.530;13.304;2023-05-20T11:14:28;17.60;99.90
6724;DHT22;3399;52.530;13.304;2023-05-20T11:16:58;17.50;99.90
6724;DHT22;3399;52.530;13.304;2023-05-20T11:19:27;17.40;99.90
6724;DHT22;3399;52.530;13.304;2023-05-20T11:21:53;17.30;99.90
6724;DHT22;3399;52.530;13.304;2023-05-20T11:24:23;17.50;99.90
6724;DHT22;3399;52.530;13.304;2023-05-20T11:26:50;17.50;99.90
6724;DHT22;3399;52.530;13.304;2023-05-20T11:29:17;17.60;99.90
6724;DHT22;3399;52.530;13.304;2023-05-20T11:31:44;17.70;99.90
6724;DHT22;3399;52.530;13.304;2023-05-20T11:34:09;17.70;99.90
6724;DHT22;3399;52.530;13.304;2023-05-20T11:36:40;18.00;99.90
6724;DHT22;3399;52.530;13.304;2023-05-20T11:39:09;18.00;99.90
6724;DHT22;3399;52.530;13.304;2023-05-20T11:41:35;18.30;99.90
6724;DHT22;3399;52.530;13.304;2023-05-20T11:44:01;18.90;99.90
6724;DHT22;3399;52.530;13.304;2023-05-20T11:46:27;19.10;99.90
6724;DHT22;3399;52.530;13.304;2023-05-20T11:48:56;19.40;99.90
6724;DHT22;3399;52.530;13.304;2023-05-20T11:51:29;19.40;99.90
6724;DHT22;3399;52.530;13.304;2023-05-20T11:54:01;19.50;99.90
6724;DHT22;3399;52.530;13.304;2023-05-20T11:56:32;19.60;99.90
6724;DHT22;3399;52.530;13.304;2023-05-20T11:59:00;19.00;99.90
6724;DHT22;3399;52.530;13.304;2023-05-20T12:01:29;19.10;99.90
6724;DHT22;3399;52.530;13.304;2023-05-20T12:03:55;19.40;99.90
6724;DHT22;3399;52.530;13.304;2023-05-20T12:06:21;19.60;99.90
6724;DHT22;3399;52.530;13.304;2023-05-20T12:08:46;19.90;99.90
6724;DHT22;3399;52.530;13.304;2023-05-20T12:11:12;20.10;99.50
6724;DHT22;3399;52.530;13.304;2023-05-20T12:13:38;20.00;99.90
6724;DHT22;3399;52.530;13.304;2023-05-20T12:16:04;20.10;99.90
6724;DHT22;3399;52.530;13.304;2023-05-20T12:18:30;19.90;99.90
6724;DHT22;3399;52.530;13.304;2023-05-20T12:21:00;20.10;99.80
6724;DHT22;3399;52.530;13.304;2023-05-20T12:23:25;20.10;99.80
6724;DHT22;3399;52.530;13.304;2023-05-20T12:25:51;20.30;99.60
6724;DHT22;3399;52.530;13.304;2023-05-20T12:28:16;20.70;99.90
6724;DHT22;3399;52.530;13.304;2023-05-20T12:30:42;20.60;99.80
6724;DHT22;3399;52.530;13.304;2023-05-20T12:33:08;20.70;99.00
6724;DHT22;3399;52.530;13.304;2023-05-20T12:35:42;20.50;98.80
6724;DHT22;3399;52.530;13.304;2023-05-20T12:38:08;20.50;98.80
6724;DHT22;3399;52.530;13.304;2023-05-20T12:40:34;20.10;98.70
6724;DHT22;3399;52.530;13.304;2023-05-20T12:43:01;20.00;99.90
6724;DHT22;3399;52.530;13.304;2023-05-20T12:45:27;20.10;99.90
6724;DHT22;3399;52.530;13.304;2023-05-20T12:47:53;20.50;99.10
6724;DHT22;3399;52.530;13.304;2023-05-20T12:50:19;20.80;99.30
6724;DHT22;3399;52.530;13.304;2023-05-20T12:52:45;21.20;98.30
6724;DHT22;3399;52.530;13.304;2023-05-20T12:55:10;21.00;98.10
6724;DHT22;3399;52.530;13.304;2023-05-20T12:57:42;21.20;99.50
6724;DHT22;3399;52.530;13.304;2023-05-20T13:00:08;21.40;98.20
6724;DHT22;3399;52.530;13.304;2023-05-20T13:02:35;21.70;97.60
6724;DHT22;3399;52.530;13.304;2023-05-20T13:05:01;21.40;97.60
6724;DHT22;3399;52.530;13.304;2023-05-20T13:07:26;21.50;97.30
6724;DHT22;3399;52.530;13.304;2023-05-20T13:09:52;21.50;96.90
6724;DHT22;3399;52.530;13.304;2023-05-20T13:12:18;21.50;97.60
6724;DHT22;3399;52.530;13.304;2023-05-20T13:14:43;21.60;98.10
6724;DHT22;3399;52.530;13.304;2023-05-20T13:17:11;21.50;97.70
6724;DHT22;3399;52.530;13.304;2023-05-20T13:19:36;21.80;97.00
6724;DHT22;3399;52.530;13.304;2023-05-20T13:22:03;21.90;97.80
6724;DHT22;3399;52.530;13.304;2023-05-20T13:24:28;21.60;97.30
6724;DHT22;3399;52.530;13.304;2023-05-20T13:26:54;21.60;97.30
6724;DHT22;3399;52.530;13.304;2023-05-20T13:29:20;21.40;97.50
6724;DHT22;3399;52.530;13.304;2023-05-20T13:31:46;21.40;97.70
6724;DHT22;3399;52.530;13.304;2023-05-20T13:34:11;21.60;98.20
6724;DHT22;3399;52.530;13.304;2023-05-20T13:36:37;21.20;97.10
6724;DHT22;3399;52.530;13.304;2023-05-20T13:39:02;21.10;97.00
6724;DHT22;3399;52.530;13.304;2023-05-20T13:41:28;21.00;97.80
6724;DHT22;3399;52.530;13.304;2023-05-20T13:43:54;21.00;97.20
6724;DHT22;3399;52.530;13.304;2023-05-20T13:46:20;21.10;97.90
6724;DHT22;3399;52.530;13.304;2023-05-20T13:48:46;21.40;98.30
6724;DHT22;3399;52.530;13.304;2023-05-20T13:51:12;21.50;97.30
6724;DHT22;3399;52.530;13.304;2023-05-20T13:53:38;21.80;97.10
6724;DHT22;3399;52.530;13.304;2023-05-20T13:56:03;21.90;97.50
6724;DHT22;3399;52.530;13.304;2023-05-20T13:58:30;22.40;96.10
6724;DHT22;3399;52.530;13.304;2023-05-20T14:00:55;21.90;96.00
6724;DHT22;3399;52.530;13.304;2023-05-20T14:03:21;21.80;96.70
6724;DHT22;3399;52.530;13.304;2023-05-20T14:05:47;21.40;96.60
6724;DHT22;3399;52.530;13.304;2023-05-20T14:08:12;21.90;97.10
6724;DHT22;3399;52.530;13.304;2023-05-20T14:10:38;22.30;96.50
6724;DHT22;3399;52.530;13.304;2023-05-20T14:13:04;22.40;96.80
6724;DHT22;3399;52.530;13.304;2023-05-20T14:15:30;22.40;95.20
6724;DHT22;3399;52.530;13.304;2023-05-20T14:17:58;22.20;95.60
6724;DHT22;3399;52.530;13.304;2023-05-20T14:20:24;22.10;95.80
6724;DHT22;3399;52.530;13.304;2023-05-20T14:22:51;22.40;96.40
6724;DHT22;3399;52.530;13.304;2023-05-20T14:25:17;22.60;95.50
6724;DHT22;3399;52.530;13.304;2023-05-20T14:27:42;22.50;95.60
6724;DHT22;3399;52.530;13.304;2023-05-20T14:30:08;22.80;96.30
6724;DHT22;3399;52.530;13.304;2023-05-20T14:32:34;23.00;95.20
6724;DHT22;3399;52.530;13.304;2023-05-20T14:35:00;23.20;94.50
6724;DHT22;3399;52.530;13.304;2023-05-20T14:37:25;23.00;94.00
6724;DHT22;3399;52.530;13.304;2023-05-20T14:39:55;22.10;94.90
6724;DHT22;3399;52.530;13.304;2023-05-20T14:42:21;22.10;96.10
6724;DHT22;3399;52.530;13.304;2023-05-20T14:44:46;22.20;95.50
6724;DHT22;3399;52.530;13.304;2023-05-20T14:47:12;22.30;95.40
6724;DHT22;3399;52.530;13.304;2023-05-20T14:49:41;22.10;95.00
6724;DHT22;3399;52.530;13.304;2023-05-20T14:52:06;22.30;95.80
6724;DHT22;3399;52.530;13.304;2023-05-20T14:54:32;22.70;95.30
6724;DHT22;3399;52.530;13.304;2023-05-20T14:56:58;23.10;95.50
6724;DHT22;3399;52.530;13.304;2023-05-20T14:59:23;23.50;93.90
6724;DHT22;3399;52.530;13.304;2023-05-20T15:01:49;23.70;94.50
6724;DHT22;3399;52.530;13.304;2023-05-20T15:04:15;23.10;94.00
6724;DHT22;3399;52.530;13.304;2023-05-20T15:06:40;22.90;95.20
6724;DHT22;3399;52.530;13.304;2023-05-20T15:09:06;23.20;95.00
6724;DHT22;3399;52.530;13.304;2023-05-20T15:11:31;23.30;93.70
6724;DHT22;3399;52.530;13.304;2023-05-20T15:13:57;22.90;94.70
6724;DHT22;3399;52.530;13.304;2023-05-20T15:16:23;23.10;94.30
6724;DHT22;3399;52.530;13.304;2023-05-20T15:18:52;23.20;94.00
6724;DHT22;3399;52.530;13.304;2023-05-20T15:21:17;23.30;93.90
6724;DHT22;3399;52.530;13.304;2023-05-20T15:23:43;23.20;95.10
6724;DHT22;3399;52.530;13.304;2023-05-20T15:26:09;23.40;94.40
6724;DHT22;3399;52.530;13.304;2023-05-20T15:28:39;23.70;94.50
6724;DHT22;3399;52.530;13.304;2023-05-20T15:31:05;23.50;94.10
6724;DHT22;3399;52.530;13.304;2023-05-20T15:33:31;23.50;94.00
6724;DHT22;3399;52.530;13.304;2023-05-20T15:35:57;23.90;93.40
6724;DHT22;3399;52.530;13.304;2023-05-20T15:38:23;23.60;94.00
6724;DHT22;3399;52.530;13.304;2023-05-20T15:40:49;23.50;93.70
6724;DHT22;3399;52.530;13.304;2023-05-20T15:43:15;23.90;93.40
6724;DHT22;3399;52.530;13.304;2023-05-20T15:45:41;24.10;93.70
6724;DHT22;3399;52.530;13.304;2023-05-20T15:48:07;23.70;93.60
6724;DHT22;3399;52.530;13.304;2023-05-20T15:50:34;24.00;93.40